Airfield :
LOGIN :

Register | Disclaimer

   EN    FR    IT 

 










Legend :    VFR   Marginal VFR   IFR   Intensive IFR   Very Intensive IFR
Visi :
Ceiling :
>= 8 km
>= 3000ft
5 to 8 km
1000 to 3000 ft
1500m to 5 km
500 to 1000 ft
800 to 1500m
200 to 500 ft
< 800m
< 200 ft
Symbols :   Thunderstorms  Fog  Heavy snow  Heavy precipitations  Wind > 20 kt
SIGMETs :     Misc.  Thunderstorms  Icing  Turbulence  Mountain Waves  Volcanic Ashes







- Airport Elevation : 616 ft
- IATA code : PUF
- Download approach charts


LFBP - Pau

CURRENT METAR :
  • 181630Z AUTO 02007KT 9999 ///CB 28/17 Q1015 TEMPO 4000 -SHRA

EXPIRED METARs :
  • 181600Z AUTO 36007KT 320V040 9999 FEW056 29/17 Q1015 TEMPO 4000 -SHRA SCT045CB
  • 181530Z AUTO 03006KT 350V070 CAVOK 29/16 Q1015 TEMPO 4000 -SHRA SCT045CB
  • 181500Z AUTO 36006KT 320V060 CAVOK 30/16 Q1015 TEMPO 4000 -SHRA SCT045CB
  • 181430Z AUTO 34005KT 310V070 CAVOK 29/16 Q1015 TEMPO 4000 -SHRA SCT045CB
  • 181400Z AUTO /////KT CAVOK 29/17 Q1016

TAF TAF LFBP
Valid from the 18 at 12:00 until the 19 at 12:00 UTC


181100Z 1812/1912 32005KT CAVOK
BECMG 1814/1816 SCT060TCU
TEMPO 1816/1820 4000 -SHRA SCT045CB
BECMG 1820/1824 BKN010
TEMPO 1902/1906 3000 BR BKN005
BECMG 1907/1909 SCT030
No reported NOTAMs for that airfield.
1 SIGMET reported for the Bordeaux FIR (LFBB) :
 
Embedded thunderstorms
LFBB SIGMET 2 VALID 181620/181800 LFPW
LFBB BORDEAUX FIR/UIR EMBD TS OBS WI N4615 E00300 - N4445 E00245 - N4530 E00200 - N4615 E00300 TOP FL340 STNR NC=



MET'MAP, your aeronautical weather chart ! - Copyright ORBIFLY December 2007 - Disclaimer

ORBIFLY MET'MAP TEAM :

Programming & Development : Alexandra Zaïnal
Concept & Development : Baudouin d'Aumeries
Co-Development & Prog : Marc-Olivier Méhu
Technical & hardware support : Manuel Goepfert

Contact : metmap@orbifly.com




SOURCES & CREDITS :

   NOAA